createdAt,value
2022-12-23T00:00:44.611Z,14.55
2022-12-23T00:03:12.244Z,16.80
2022-12-23T00:05:40.183Z,12.00
2022-12-23T00:08:08.033Z,8.35
2022-12-23T00:10:35.917Z,12.43
2022-12-23T00:13:21.572Z,6.40
2022-12-23T00:15:48.718Z,10.68
2022-12-23T00:18:16.107Z,4.95
2022-12-23T00:20:43.275Z,6.90
2022-12-23T00:23:10.479Z,6.57
2022-12-23T00:25:44.961Z,4.82
2022-12-23T00:28:17.491Z,9.88
2022-12-23T00:30:46.224Z,7.00
2022-12-23T00:33:14.036Z,4.53
2022-12-23T00:35:41.245Z,5.07
2022-12-23T00:38:08.489Z,3.55
2022-12-23T00:40:54.489Z,5.28
2022-12-23T00:43:21.700Z,4.15
2022-12-23T00:45:49.130Z,3.55
2022-12-23T00:48:35.637Z,1.52
2022-12-23T00:51:02.808Z,3.78
2022-12-23T00:53:30.048Z,3.38
2022-12-23T00:55:57.187Z,4.93
2022-12-23T00:58:24.388Z,5.40
2022-12-23T01:01:13.077Z,3.60
2022-12-23T01:03:59.036Z,2.90
2022-12-23T01:06:26.204Z,5.72
2022-12-23T01:08:53.388Z,0.80
2022-12-23T01:11:20.665Z,1.17
2022-12-23T01:13:50.504Z,1.98
2022-12-23T01:16:18.066Z,2.65
2022-12-23T01:18:45.657Z,3.50
2022-12-23T01:21:14.614Z,2.38
2022-12-23T01:23:41.859Z,3.38
2022-12-23T01:26:09.021Z,1.23
2022-12-23T01:28:36.877Z,2.13
2022-12-23T01:31:05.125Z,2.20
2022-12-23T01:33:33.173Z,1.60
2022-12-23T01:36:04.210Z,1.63
2022-12-23T01:38:31.363Z,0.40
2022-12-23T01:40:58.627Z,2.17
2022-12-23T01:43:44.597Z,0.60
2022-12-23T01:46:11.848Z,1.80
2022-12-23T01:48:39.514Z,1.63
2022-12-23T01:51:09.601Z,1.33
2022-12-23T01:53:39.240Z,2.65
2022-12-23T01:56:15.905Z,1.50
2022-12-23T01:58:49.286Z,0.95
2022-12-23T02:01:35.797Z,3.05
2022-12-23T02:04:04.773Z,0.90
2022-12-23T02:06:53.109Z,0.68
2022-12-23T02:09:22.572Z,1.38
2022-12-23T02:11:52.699Z,0.95
2022-12-23T02:14:45.660Z,2.00
2022-12-23T02:17:20.398Z,1.10
2022-12-23T02:20:08.685Z,2.25
2022-12-23T02:22:39.068Z,0.32
2022-12-23T02:25:21.506Z,1.02
2022-12-23T02:27:58.699Z,0.50
2022-12-23T02:30:41.446Z,3.22
2022-12-23T02:33:16.440Z,0.77
2022-12-23T02:35:52.842Z,0.47
2022-12-23T02:38:39.927Z,1.63
2022-12-23T02:41:16.310Z,1.35
2022-12-23T02:43:43.402Z,2.25
2022-12-23T02:46:13.758Z,0.60
2022-12-23T02:49:02.487Z,1.23
2022-12-23T02:51:35.076Z,3.15
2022-12-23T02:54:03.908Z,2.83
2022-12-23T02:56:32.558Z,2.72
2022-12-23T02:59:02.575Z,1.00
2022-12-23T03:01:32.162Z,0.50
2022-12-23T03:04:00.037Z,0.63
2022-12-23T03:06:30.430Z,2.35
2022-12-23T03:08:59.166Z,1.05
2022-12-23T03:11:40.010Z,0.50
2022-12-23T03:14:15.594Z,0.70
2022-12-23T03:16:42.915Z,2.75
2022-12-23T03:19:28.783Z,1.45
2022-12-23T03:22:20.784Z,1.08
2022-12-23T03:24:55.193Z,2.35
2022-12-23T03:27:34.628Z,0.90
2022-12-23T03:30:09.598Z,4.20
2022-12-23T03:32:39.943Z,1.13
2022-12-23T03:35:08.732Z,1.02
2022-12-23T03:37:37.298Z,1.63
2022-12-23T03:40:28.094Z,3.00
2022-12-23T03:43:04.048Z,0.85
2022-12-23T03:45:39.295Z,1.23
2022-12-23T03:48:10.599Z,2.08
2022-12-23T03:50:41.712Z,4.30
2022-12-23T03:53:14.868Z,0.70
2022-12-23T03:55:45.807Z,1.48
2022-12-23T03:58:25.972Z,1.92
2022-12-23T04:01:04.600Z,2.30
2022-12-23T04:03:38.128Z,2.63
2022-12-23T04:08:36.704Z,2.50
2022-12-23T04:11:04.309Z,2.40
2022-12-23T04:13:31.925Z,1.85
2022-12-23T04:15:59.925Z,4.97
2022-12-23T04:18:27.573Z,1.00
2022-12-23T04:20:54.777Z,2.35
2022-12-23T04:23:22.051Z,3.53
2022-12-23T04:25:49.311Z,2.55
2022-12-23T04:28:18.148Z,4.80
2022-12-23T04:30:45.338Z,3.78
2022-12-23T04:33:13.148Z,3.05
2022-12-23T04:35:40.292Z,2.90
2022-12-23T04:38:08.174Z,2.97
2022-12-23T04:40:35.438Z,0.77
2022-12-23T04:43:02.650Z,2.30
2022-12-23T04:45:29.856Z,1.67
2022-12-23T04:47:57.687Z,0.82
2022-12-23T04:50:24.885Z,1.45
2022-12-23T04:52:52.061Z,2.70
2022-12-23T04:55:19.283Z,1.77
2022-12-23T04:57:49.299Z,0.88
2022-12-23T05:00:16.696Z,0.95
2022-12-23T05:02:44.086Z,2.92
2022-12-23T05:05:11.401Z,1.20
2022-12-23T05:07:38.606Z,7.13
2022-12-23T05:10:05.949Z,2.38
2022-12-23T05:12:33.193Z,3.38
2022-12-23T05:15:00.394Z,1.67
2022-12-23T05:17:27.653Z,5.10
2022-12-23T05:19:54.779Z,6.32
2022-12-23T05:22:22.163Z,5.60
2022-12-23T05:24:49.439Z,11.52
2022-12-23T05:27:16.642Z,11.82
2022-12-23T05:29:44.053Z,21.90
2022-12-23T05:32:11.279Z,42.30
2022-12-23T05:34:38.744Z,6.43
2022-12-23T05:37:05.968Z,4.40
2022-12-23T05:39:35.180Z,5.85
2022-12-23T05:42:02.307Z,17.48
2022-12-23T05:44:29.556Z,1.20
2022-12-23T05:46:56.712Z,1.02
2022-12-23T05:49:25.376Z,2.13
2022-12-23T05:51:52.561Z,0.80
2022-12-23T05:54:19.798Z,0.30
2022-12-23T05:56:46.914Z,1.00
2022-12-23T05:59:14.782Z,0.65
2022-12-23T06:01:41.991Z,0.80
2022-12-23T06:04:09.356Z,0.20
2022-12-23T06:06:36.600Z,0.47
2022-12-23T06:09:04.003Z,0.10
2022-12-23T06:11:31.172Z,0.43
2022-12-23T06:13:58.406Z,0.65
2022-12-23T06:16:25.665Z,0.20
2022-12-23T06:18:56.501Z,0.40
2022-12-23T06:21:25.523Z,0.90
2022-12-23T06:23:52.932Z,0.13
2022-12-23T06:26:20.495Z,0.80
2022-12-23T06:28:47.712Z,0.55
2022-12-23T06:31:14.887Z,0.08
2022-12-23T06:33:42.166Z,1.88
2022-12-23T06:36:09.480Z,0.32
2022-12-23T06:38:36.646Z,0.93
2022-12-23T06:41:03.867Z,14.55
2022-12-23T06:43:31.028Z,5.15
2022-12-23T06:45:58.232Z,4.25
2022-12-23T06:48:25.517Z,3.15
2022-12-23T06:50:52.809Z,3.47
2022-12-23T06:53:19.984Z,7.97
2022-12-23T06:55:47.299Z,8.93
2022-12-23T06:58:14.477Z,6.95
2022-12-23T07:00:41.752Z,6.03
2022-12-23T07:03:09.004Z,2.97
2022-12-23T07:05:37.659Z,2.50
2022-12-23T07:08:05.261Z,2.05
2022-12-23T07:10:32.517Z,8.82
2022-12-23T07:12:59.873Z,5.57
2022-12-23T07:15:27.026Z,5.80
2022-12-23T07:17:55.003Z,7.65
2022-12-23T07:20:22.395Z,7.15
2022-12-23T07:22:50.382Z,8.15
2022-12-23T07:25:17.478Z,6.25
2022-12-23T07:27:44.742Z,6.78
2022-12-23T07:30:12.069Z,5.28
2022-12-23T07:32:39.867Z,4.03
2022-12-23T07:35:07.309Z,1.77
2022-12-23T07:37:34.640Z,3.67
2022-12-23T07:40:08.133Z,3.58
2022-12-23T07:42:45.606Z,5.25
2022-12-23T07:45:13.170Z,3.03
2022-12-23T07:47:40.560Z,4.07
2022-12-23T07:50:08.118Z,5.97
2022-12-23T07:52:35.260Z,5.10
2022-12-23T07:55:02.451Z,6.15
2022-12-23T07:57:29.657Z,17.58
2022-12-23T07:59:57.249Z,17.00
2022-12-23T08:02:25.423Z,17.95
2022-12-23T08:04:52.911Z,21.25
2022-12-23T08:07:20.064Z,16.10
2022-12-23T08:09:47.319Z,13.73
2022-12-23T08:12:14.551Z,12.70
2022-12-23T08:14:41.697Z,12.18
2022-12-23T08:17:09.072Z,9.35
2022-12-23T08:19:36.296Z,11.70
2022-12-23T08:22:03.490Z,9.63
2022-12-23T08:24:30.672Z,7.80
2022-12-23T08:26:58.331Z,8.50
2022-12-23T08:29:25.561Z,7.30
2022-12-23T08:31:54.110Z,8.82
2022-12-23T08:34:21.262Z,14.90
2022-12-23T08:36:48.487Z,11.10
2022-12-23T08:39:16.111Z,11.35
2022-12-23T08:41:45.214Z,22.95
2022-12-23T08:44:12.472Z,20.27
2022-12-23T08:46:39.897Z,23.85
2022-12-23T08:49:07.571Z,22.65
2022-12-23T08:51:34.760Z,25.10
2022-12-23T08:54:01.980Z,21.13
2022-12-23T08:56:31.732Z,8.55
2022-12-23T08:58:59.527Z,13.15
2022-12-23T09:01:27.843Z,16.88
2022-12-23T09:03:55.265Z,12.98
2022-12-23T09:06:29.019Z,11.93
2022-12-23T09:08:57.894Z,8.23
2022-12-23T09:11:26.175Z,8.50
2022-12-23T09:13:53.657Z,7.13
2022-12-23T09:16:21.495Z,14.57
2022-12-23T09:18:48.850Z,13.25
2022-12-23T09:21:17.971Z,9.38
2022-12-23T09:23:45.343Z,11.05
2022-12-23T09:26:17.748Z,11.13
2022-12-23T09:28:44.912Z,18.55
2022-12-23T09:31:13.202Z,24.17
2022-12-23T09:33:40.591Z,30.63
2022-12-23T09:36:08.157Z,16.02
2022-12-23T09:38:36.198Z,17.23
2022-12-23T09:41:04.591Z,9.48
2022-12-23T09:43:43.674Z,9.60
2022-12-23T09:46:18.646Z,11.90
2022-12-23T09:49:06.238Z,6.60
2022-12-23T09:51:35.010Z,11.02
2022-12-23T09:54:17.308Z,6.63
2022-12-23T09:57:03.829Z,5.30
2022-12-23T09:59:49.792Z,6.93
2022-12-23T10:02:28.613Z,12.85
2022-12-23T10:05:14.766Z,6.95
2022-12-23T10:07:46.801Z,4.18
2022-12-23T10:10:18.956Z,7.38
2022-12-23T10:12:47.928Z,9.40
2022-12-23T10:15:30.719Z,10.73
2022-12-23T10:18:01.931Z,12.63
2022-12-23T10:20:45.164Z,7.75
2022-12-23T10:23:16.803Z,7.38
2022-12-23T10:25:51.720Z,1.60
2022-12-23T10:28:18.965Z,4.75
2022-12-23T10:31:11.138Z,0.88
2022-12-23T10:33:46.428Z,1.38
2022-12-23T10:36:28.863Z,0.22
2022-12-23T10:39:25.555Z,0.70
2022-12-23T10:42:11.567Z,0.82
2022-12-23T10:44:46.722Z,0.80
2022-12-23T10:47:26.360Z,2.20
2022-12-23T10:50:00.429Z,2.15
2022-12-23T10:52:30.591Z,1.10
2022-12-23T10:54:57.753Z,0.90
2022-12-23T10:57:26.054Z,0.63
2022-12-23T10:59:53.367Z,0.43
2022-12-23T11:02:43.681Z,0.43
2022-12-23T11:05:16.128Z,0.43
2022-12-23T11:07:45.760Z,1.38
2022-12-23T11:10:18.113Z,0.52
2022-12-23T11:12:47.376Z,1.30
2022-12-23T11:15:38.764Z,0.22
2022-12-23T11:18:05.954Z,1.20
2022-12-23T11:20:34.373Z,1.65
2022-12-23T11:23:03.060Z,0.50
2022-12-23T11:25:44.196Z,1.15
2022-12-23T11:28:11.308Z,0.20
2022-12-23T11:30:39.908Z,0.47
2022-12-23T11:33:07.112Z,0.20
2022-12-23T11:35:36.469Z,0.20
2022-12-23T11:38:04.500Z,0.40
2022-12-23T11:40:36.574Z,0.20
2022-12-23T11:43:05.325Z,0.40
2022-12-23T11:45:36.855Z,0.82
2022-12-23T11:48:04.662Z,0.20
2022-12-23T11:50:33.717Z,1.40
2022-12-23T11:53:19.553Z,0.47
2022-12-23T11:56:05.363Z,2.60
2022-12-23T11:58:38.219Z,1.05
2022-12-23T12:01:09.428Z,0.43
2022-12-23T12:03:47.919Z,0.40
2022-12-23T12:06:17.122Z,0.60
2022-12-23T12:08:44.306Z,1.35
2022-12-23T12:11:17.716Z,0.43
2022-12-23T12:13:53.754Z,0.30
2022-12-23T12:16:39.764Z,3.78
2022-12-23T12:19:11.315Z,5.72
2022-12-23T12:21:38.986Z,0.57
2022-12-23T12:24:18.733Z,0.30
2022-12-23T12:26:50.985Z,0.47
2022-12-23T12:29:21.419Z,0.65
2022-12-23T12:31:49.958Z,0.55
2022-12-23T12:34:17.052Z,1.00
2022-12-23T12:36:53.956Z,0.32
2022-12-23T12:39:28.139Z,1.55
2022-12-23T12:42:05.026Z,16.55
2022-12-23T12:44:42.430Z,0.35
2022-12-23T12:50:27.887Z,4.38
2022-12-23T12:52:57.444Z,3.25
2022-12-23T12:55:30.611Z,1.95
2022-12-23T12:57:57.768Z,13.18
2022-12-23T13:00:25.508Z,3.05
2022-12-23T13:03:11.571Z,1.42
2022-12-23T13:05:57.731Z,0.63
2022-12-23T13:08:37.180Z,0.50
2022-12-23T13:11:15.356Z,0.98
2022-12-23T13:14:05.853Z,0.55
2022-12-23T13:16:49.383Z,0.50
2022-12-23T13:19:25.900Z,1.20
2022-12-23T13:22:01.602Z,2.85
2022-12-23T13:24:34.762Z,1.05
2022-12-23T13:27:08.317Z,0.45
2022-12-23T13:29:47.855Z,0.30
2022-12-23T13:32:23.366Z,0.75
2022-12-23T13:34:56.456Z,0.52
2022-12-23T13:37:29.636Z,0.50
2022-12-23T13:40:12.068Z,0.50
2022-12-23T13:42:42.767Z,0.75
2022-12-23T13:45:17.509Z,1.45
2022-12-23T13:47:49.377Z,2.47
2022-12-23T13:50:23.001Z,5.25
2022-12-23T13:55:17.275Z,1.30
2022-12-23T13:57:50.425Z,0.63
2022-12-23T14:00:17.661Z,1.00
2022-12-23T14:02:51.254Z,0.98
2022-12-23T14:07:45.888Z,1.95
2022-12-23T14:10:21.702Z,0.55
2022-12-23T14:12:49.113Z,1.10
2022-12-23T14:15:28.858Z,0.40
2022-12-23T14:18:08.750Z,0.40
2022-12-23T14:20:45.203Z,0.50
2022-12-23T14:23:33.577Z,0.65
2022-12-23T14:26:07.992Z,0.30
2022-12-23T14:28:50.158Z,1.02
2022-12-23T14:31:29.444Z,0.45
2022-12-23T14:34:03.270Z,0.52
2022-12-23T14:36:30.610Z,0.45
2022-12-23T14:39:17.873Z,0.52
2022-12-23T14:41:51.211Z,0.73
2022-12-23T14:44:20.134Z,1.05
2022-12-23T14:46:47.303Z,1.67
2022-12-23T14:49:39.663Z,12.07
2022-12-23T14:52:26.075Z,0.60
2022-12-23T14:55:21.076Z,0.73
2022-12-23T14:57:40.439Z,0.73
2022-12-23T15:00:08.090Z,1.42
2022-12-23T15:02:37.587Z,8.85
2022-12-23T15:05:05.187Z,16.02
2022-12-23T15:07:39.818Z,5.10
2022-12-23T15:10:28.995Z,11.73
2022-12-23T15:12:57.720Z,21.08
2022-12-23T15:15:26.264Z,26.98
2022-12-23T15:18:03.618Z,14.10
2022-12-23T15:20:31.123Z,3.13
2022-12-23T15:23:02.301Z,2.10
2022-12-23T15:25:31.209Z,1.65
2022-12-23T15:28:01.883Z,1.05
2022-12-23T15:30:31.540Z,1.60
2022-12-23T15:33:34.774Z,2.83
2022-12-23T15:35:56.241Z,2.40
2022-12-23T15:38:25.908Z,2.83
2022-12-23T15:41:01.244Z,2.30
2022-12-23T15:43:28.722Z,2.50
2022-12-23T15:46:05.051Z,4.22
2022-12-23T15:48:33.225Z,6.68
2022-12-23T15:51:03.245Z,6.00
2022-12-23T15:53:38.284Z,12.10
2022-12-23T15:56:11.033Z,9.63
2022-12-23T15:58:39.842Z,5.57
2022-12-23T16:01:07.903Z,6.68
2022-12-23T16:03:37.523Z,4.03
2022-12-23T16:06:22.202Z,3.78
2022-12-23T16:08:56.689Z,4.93
2022-12-23T16:11:24.288Z,6.97
2022-12-23T16:14:02.820Z,12.98
2022-12-23T16:16:32.583Z,21.40
2022-12-23T16:18:59.926Z,12.23
2022-12-23T16:21:31.902Z,19.92
2022-12-23T16:23:59.695Z,22.48
2022-12-23T16:26:27.104Z,21.45
2022-12-23T16:28:56.087Z,26.67
2022-12-23T16:31:24.397Z,22.10
2022-12-23T16:33:55.809Z,23.73
2022-12-23T16:36:23.919Z,21.33
2022-12-23T16:38:52.568Z,31.15
2022-12-23T16:41:20.733Z,23.98
2022-12-23T16:43:52.734Z,26.10
2022-12-23T16:46:21.323Z,28.77
2022-12-23T16:49:11.066Z,19.15
2022-12-23T16:51:39.167Z,18.67
2022-12-23T16:54:06.440Z,22.45
2022-12-23T16:56:39.799Z,21.95
2022-12-23T16:59:07.347Z,23.15
2022-12-23T17:01:35.737Z,21.27
2022-12-23T17:04:02.938Z,24.65
2022-12-23T17:06:30.159Z,31.67
2022-12-23T17:08:57.482Z,29.80
2022-12-23T17:11:36.908Z,22.52
2022-12-23T17:14:09.123Z,25.20
2022-12-23T17:16:39.184Z,28.20
2022-12-23T17:19:06.376Z,39.47
2022-12-23T17:21:36.727Z,33.22
2022-12-23T17:24:06.277Z,33.42
2022-12-23T17:26:33.516Z,32.35
2022-12-23T17:29:00.751Z,24.20
2022-12-23T17:31:28.019Z,25.50
2022-12-23T17:33:55.312Z,21.90
2022-12-23T17:36:23.103Z,22.92
2022-12-23T17:38:50.362Z,18.42
2022-12-23T17:41:23.777Z,22.45
2022-12-23T17:43:51.029Z,19.27
2022-12-23T17:46:18.254Z,20.42
2022-12-23T17:48:47.085Z,37.88
2022-12-23T17:51:15.669Z,44.05
2022-12-23T17:53:42.994Z,50.92
2022-12-23T17:56:12.054Z,45.97
2022-12-23T17:58:39.284Z,55.95
2022-12-23T18:01:06.638Z,47.80
2022-12-23T18:03:33.850Z,46.65
2022-12-23T18:06:02.283Z,30.52
2022-12-23T18:08:29.737Z,40.45
2022-12-23T18:10:57.896Z,42.28
2022-12-23T18:13:25.106Z,27.05
2022-12-23T18:15:52.699Z,28.67
2022-12-23T18:18:28.631Z,15.23
2022-12-23T18:20:58.968Z,14.75
2022-12-23T18:23:27.401Z,16.55
2022-12-23T18:25:55.043Z,13.32
2022-12-23T18:28:22.373Z,20.33
2022-12-23T18:30:50.133Z,20.20
2022-12-23T18:33:17.575Z,16.10
2022-12-23T18:35:49.416Z,17.60
2022-12-23T18:38:17.094Z,13.32
2022-12-23T18:40:44.635Z,17.02
2022-12-23T18:43:18.708Z,17.40
2022-12-23T18:45:50.812Z,21.63
2022-12-23T18:48:20.342Z,17.33
2022-12-23T18:50:47.777Z,19.45
2022-12-23T18:53:23.432Z,26.52
2022-12-23T18:55:51.361Z,16.65
2022-12-23T18:58:18.644Z,20.10
2022-12-23T19:00:46.182Z,31.05
2022-12-23T19:03:22.470Z,22.92
2022-12-23T19:05:50.041Z,53.28
2022-12-23T19:08:23.548Z,31.38
2022-12-23T19:10:53.873Z,28.08
2022-12-23T19:13:21.096Z,43.67
2022-12-23T19:15:48.418Z,32.65
2022-12-23T19:18:17.042Z,24.90
2022-12-23T19:20:45.067Z,27.50
2022-12-23T19:23:12.619Z,20.65
2022-12-23T19:25:47.778Z,63.35
2022-12-23T19:28:21.966Z,106.45
2022-12-23T19:30:50.059Z,30.60
2022-12-23T19:33:17.406Z,25.08
2022-12-23T19:35:44.817Z,69.55
2022-12-23T19:38:12.745Z,54.30
2022-12-23T19:40:40.136Z,199.50
2022-12-23T19:43:07.366Z,56.65
2022-12-23T19:45:34.588Z,56.75
2022-12-23T19:48:01.857Z,30.50
2022-12-23T19:50:29.033Z,51.85
2022-12-23T19:52:56.579Z,30.50
2022-12-23T19:55:23.999Z,59.75
2022-12-23T19:57:52.285Z,50.33
2022-12-23T20:00:19.753Z,198.68
2022-12-23T20:02:47.062Z,85.20
2022-12-23T20:05:14.289Z,66.55
2022-12-23T20:07:42.554Z,112.07
2022-12-23T20:10:10.160Z,103.00
2022-12-23T20:12:37.553Z,92.95
2022-12-23T20:15:04.830Z,92.68
2022-12-23T20:17:32.216Z,78.30
2022-12-23T20:19:59.778Z,66.57
2022-12-23T20:22:27.137Z,95.80
2022-12-23T20:24:54.477Z,36.03
2022-12-23T20:27:27.621Z,44.22
2022-12-23T20:29:55.138Z,35.30
2022-12-23T20:32:22.331Z,22.85
2022-12-23T20:34:50.184Z,21.40
2022-12-23T20:37:17.804Z,24.00
2022-12-23T20:39:45.167Z,25.17
2022-12-23T20:42:12.534Z,53.50
2022-12-23T20:44:39.903Z,47.80
2022-12-23T20:47:07.289Z,85.85
2022-12-23T20:49:34.663Z,81.50
2022-12-23T20:52:02.172Z,81.55
2022-12-23T20:54:33.344Z,51.35
2022-12-23T20:57:01.939Z,77.35
2022-12-23T20:59:29.261Z,50.80
2022-12-23T21:01:59.578Z,38.22
2022-12-23T21:04:27.115Z,27.50
2022-12-23T21:06:54.453Z,64.53
2022-12-23T21:09:21.652Z,53.35
2022-12-23T21:11:49.679Z,86.45
2022-12-23T21:14:17.288Z,123.40
2022-12-23T21:16:44.855Z,57.58
2022-12-23T21:19:17.128Z,25.20
2022-12-23T21:21:44.548Z,31.10
2022-12-23T21:24:12.500Z,46.47
2022-12-23T21:26:40.068Z,34.42
2022-12-23T21:29:08.000Z,39.55
2022-12-23T21:31:36.826Z,27.52
2022-12-23T21:34:07.538Z,190.73
2022-12-23T21:36:36.457Z,88.53
2022-12-23T21:39:04.484Z,46.72
2022-12-23T21:41:32.825Z,23.65
2022-12-23T21:44:00.601Z,21.55
2022-12-23T21:46:28.483Z,54.92
2022-12-23T21:48:56.505Z,48.90
2022-12-23T21:51:33.340Z,35.40
2022-12-23T21:54:05.496Z,55.97
2022-12-23T21:56:32.955Z,26.40
2022-12-23T21:59:05.042Z,18.88
2022-12-23T22:01:32.737Z,29.45
2022-12-23T22:04:00.249Z,31.00
2022-12-23T22:06:28.776Z,30.88
2022-12-23T22:08:56.573Z,52.92
2022-12-23T22:11:25.289Z,26.77
2022-12-23T22:13:53.288Z,102.75
2022-12-23T22:16:22.454Z,43.55
2022-12-23T22:18:50.289Z,30.77
2022-12-23T22:21:19.258Z,32.08
2022-12-23T22:23:46.928Z,28.27
2022-12-23T22:26:18.874Z,33.17
2022-12-23T22:28:51.664Z,42.65
2022-12-23T22:31:21.123Z,35.40
2022-12-23T22:33:48.753Z,27.08
2022-12-23T22:36:17.072Z,24.52
2022-12-23T22:38:44.830Z,19.13
2022-12-23T22:41:12.251Z,14.85
2022-12-23T22:43:39.576Z,16.70
2022-12-23T22:46:07.163Z,20.83
2022-12-23T22:48:34.947Z,12.77
2022-12-23T22:51:06.200Z,12.45
2022-12-23T22:53:33.611Z,12.50
2022-12-23T22:56:01.369Z,12.88
2022-12-23T22:58:29.269Z,15.20
2022-12-23T23:00:57.088Z,10.80
2022-12-23T23:03:25.686Z,12.60
2022-12-23T23:06:07.409Z,13.60
2022-12-23T23:08:35.381Z,18.02
2022-12-23T23:11:04.729Z,15.90
2022-12-23T23:13:33.896Z,13.32
2022-12-23T23:16:01.832Z,11.10
2022-12-23T23:18:29.974Z,12.20
2022-12-23T23:20:57.312Z,15.07
2022-12-23T23:23:24.689Z,12.15
2022-12-23T23:25:52.110Z,14.07
2022-12-23T23:28:19.607Z,10.32
2022-12-23T23:30:46.908Z,10.25
2022-12-23T23:33:14.210Z,6.55
2022-12-23T23:35:41.637Z,8.57
2022-12-23T23:38:09.416Z,8.40
2022-12-23T23:40:36.677Z,9.15
2022-12-23T23:43:04.116Z,10.27
2022-12-23T23:45:31.518Z,16.80
2022-12-23T23:47:58.919Z,7.97
2022-12-23T23:50:26.204Z,8.27
2022-12-23T23:52:53.403Z,6.55
2022-12-23T23:55:23.557Z,6.28
2022-12-23T23:57:50.988Z,7.15
